Latest Coastal Weather Observations for Lord Howe Island

IDN60701

Issued at 3:41 am EST Tuesday 28 June 2022 (issued every 10 minutes, with the page automatically refreshed every 10 minutes)

About coastal observations | Map of coastal stations | Coastal observations for NSW | Marine services | Other Formats
Station Details ID: 200839 Name: LORD HOWE ISLAND AERO Lat: -31.54 Lon: 159.08 Height: 5.0 m
Data from the previous 72 hours. | See also: Recent months at Lord Howe Island

Observations are collected in the New South Wales time zone (Eastern Standard Time) which includes daylight savings in the summer period. Therefore 'Rain since 9am' totals and other values are based on the New South Wales time zone, which may differ from local time.

Date/Time
EST
Wind Sea
Height
m
Swell Vis
km
Cloud Weather Temp
°C
Press
MSL
hPa
Rain since
9am
mm
Dir  Spd
kts
Gust
kts
Height
m
Period
s
Dir
28/03:30am SSW 12 19 - - - - 10 Partly cloudy - 14.2 1015.9 1.0
28/03:00am SSW 13 21 - - - - 10 Partly cloudy - 14.7 1015.6 1.0
28/02:30am SSW 14 22 - - - - 10 Mostly cloudy Rain 14.5 1015.5 1.0
28/02:14am SSW 15 26 - - - - 10 Partly cloudy - 14.3 1015.6 1.0
28/02:00am SSW 13 25 - - - - 10 Partly cloudy - 14.8 1015.5 1.0
28/01:32am SW 16 27 - - - - 10 Partly cloudy - 15.4 1015.9 1.0
28/01:30am SW 15 24 - - - - 10 Partly cloudy - 15.6 1015.8 1.0
28/01:00am SW 11 19 - - - - 10 Partly cloudy - 16.3 1015.9 1.0
28/12:30am SSW 11 18 - - - - 10 Partly cloudy - 16.3 1015.8 1.0
28/12:00am SW 10 14 - - - - 10 Partly cloudy - 16.2 1016.2 1.0
 
Date/Time
EST
Wind Sea
Height
m
Swell Vis
km
Cloud Weather Temp
°C
Press
MSL
hPa
Rain since
9am
mm
Dir  Spd
kts
Gust
kts
Height
m
Period
s
Dir
27/11:30pm SW 9 16 - - - - 10 Mostly clear - 16.1 1016.5 1.0
27/11:00pm SSW 9 13 - - - - 10 Partly cloudy - 15.8 1016.8 1.0
27/10:30pm SW 9 15 - - - - 10 - - 16.1 1016.9 1.0
27/10:00pm SW 10 15 - - - - 10 - - 16.1 1017.2 1.0
27/09:30pm SW 10 15 - - - - 10 Partly cloudy - 16.3 1017.2 1.0
27/09:00pm SW 7 10 - - - - 10 Partly cloudy - 16.6 1017.4 1.0
27/08:30pm SW 9 13 - - - - 10 Cloudy Thunderstorm 16.6 1017.6 1.0
27/08:00pm SSW 8 11 - - - - 10 Partly cloudy - 16.4 1017.5 1.0
27/07:30pm SSW 6 9 - - - - 10 Partly cloudy - 15.2 1017.4 1.0
27/07:00pm SSW 6 8 - - - - 10 Partly cloudy - 15.3 1017.1 1.0
27/06:30pm SSW 9 12 - - - - 10 Partly cloudy - 15.7 1017.0 1.0
27/06:00pm SW 12 20 - - - - 10 Partly cloudy - 15.4 1017.0 1.0
27/05:48pm SW 14 20 - - - - 6 Partly cloudy - 15.6 1017.2 0.6
27/05:36pm SW 15 22 - - - - 9 Partly cloudy - 16.1 1017.2 0.0
27/05:30pm SW 16 23 - - - - 10 Cloudy Showers 16.7 1017.0 0.0
27/05:04pm SW 17 24 - - - - 10 Partly cloudy - 16.9 1017.1 0.0
27/05:00pm SW 17 24 - - - - 10 Partly cloudy - 16.8 1017.1 0.0
27/04:30pm WSW 21 31 - - - - 10 Partly cloudy - 16.9 1017.1 0.0
27/04:24pm WSW 22 31 - - - - 10 Partly cloudy - 17.8 1016.8 0.0
27/04:00pm W 17 20 - - - - 10 Partly cloudy - 18.5 1016.8 0.0
27/03:30pm WNW 10 16 - - - - 10 Partly cloudy - 18.7 1017.0 0.0
27/03:00pm W 10 15 - - - - 10 Partly cloudy - 18.9 1017.2 0.0
27/02:30pm W 15 19 - - - - 10 Mostly clear - 20.0 1017.0 0.0
27/02:00pm W 12 18 - - - - 10 Mostly clear - 19.9 1017.4 0.0
27/01:30pm W 17 20 - - - - 10 Mostly clear - 18.8 1017.8 0.0
27/01:00pm WNW 9 15 - - - - 10 Mostly clear - 18.9 1018.0 0.0
27/12:30pm NW 7 16 - - - - 10 Mostly clear - 18.9 1018.1 0.0
27/12:00pm NW 7 11 - - - - 10 Mostly clear - 19.3 1018.6 0.0
27/11:30am WNW 7 11 - - - - 10 Cloudy - 19.0 1019.5 0.0
27/11:00am WNW 7 11 - - - - 10 Partly cloudy - 19.0 1020.5 0.0
27/10:30am WNW 6 10 - - - - 10 Partly cloudy - 19.3 1020.9 0.0
27/10:00am WNW 8 11 - - - - 10 Mostly clear - 19.1 1021.7 0.0
27/09:30am WNW 9 13 - - - - 10 Mostly clear - 19.1 1022.0 0.0
27/09:00am WNW 8 11 - - - - 10 Mostly clear - 18.9 1022.2 0.0
27/08:30am WNW 8 14 - - - - 10 Cloudy - 18.9 1022.4 0.0
27/08:00am WNW 7 11 - - - - 10 Partly cloudy - 18.6 1022.5 0.0
27/07:30am WNW 9 13 - - - - 10 Partly cloudy - 18.5 1022.9 0.0
27/07:00am WNW 7 11 - - - - 10 Partly cloudy - 18.4 1022.8 0.0
27/06:30am NW 5 10 - - - - 10 Partly cloudy - 18.2 1022.7 0.0
27/06:00am WNW 7 11 - - - - 10 Partly cloudy - 18.4 1022.4 0.0
27/05:30am WNW 8 11 - - - - 10 Partly cloudy - 18.3 1022.4 0.0
27/05:00am WNW 7 10 - - - - 10 Partly cloudy - 18.2 1022.4 0.0
27/04:30am WNW 7 11 - - - - 10 Partly cloudy - 18.3 1022.4 0.0
27/04:00am WNW 7 9 - - - - 10 Partly cloudy - 18.2 1022.3 0.0
27/03:30am WNW 6 11 - - - - 10 Partly cloudy - 18.0 1022.5 0.0
27/03:00am WNW 7 10 - - - - 10 Partly cloudy - 18.2 1023.0 0.0
27/02:30am WNW 7 11 - - - - 10 Cloudy - 18.6 1023.4 0.0
27/02:00am WNW 7 11 - - - - 10 Partly cloudy - 18.6 1023.7 0.0
27/01:30am NW 6 11 - - - - 10 Cloudy - 18.7 1024.0 0.0
27/01:00am NW 7 12 - - - - 10 Partly cloudy - 18.8 1024.1 0.0
27/12:30am NW 7 13 - - - - 10 Cloudy - 18.7 1024.3 0.0
27/12:00am NW 6 10 - - - - 10 Partly cloudy - 18.7 1024.5 0.0
 
Date/Time
EST
Wind Sea
Height
m
Swell Vis
km
Cloud Weather Temp
°C
Press
MSL
hPa
Rain since
9am
mm
Dir  Spd
kts
Gust
kts
Height
m
Period
s
Dir
26/11:30pm NW 5 9 - - - - 10 - - 18.4 1024.5 0.0
26/11:00pm WNW 5 8 - - - - 10 Partly cloudy - 18.4 1024.6 0.0
26/10:30pm NW 6 10 - - - - 10 Partly cloudy - 18.4 1024.8 0.0
26/10:00pm NNE 6 13 - - - - 10 Partly cloudy - 18.9 1024.9 0.0
26/09:30pm N 6 10 - - - - 10 Partly cloudy - 18.7 1025.0 0.0
26/09:00pm NNE 6 10 - - - - 10 Partly cloudy - 18.5 1024.9 0.0
26/08:30pm N 5 10 - - - - 10 Mostly cloudy - 18.4 1025.1 0.0
26/08:00pm N 6 9 - - - - 10 Cloudy - 18.5 1025.2 0.0
26/07:30pm NNE 4 8 - - - - 10 Cloudy - 18.4 1025.3 0.0
26/07:00pm N 4 7 - - - - 10 Partly cloudy - 18.4 1025.5 0.0
26/06:30pm NNE 6 9 - - - - 10 Cloudy - 18.4 1025.3 0.0
26/06:00pm NNE 5 7 - - - - 10 Partly cloudy - 17.8 1024.9 0.0
26/05:30pm N 3 5 - - - - 10 Partly cloudy - 15.5 1024.6 0.0
26/05:00pm N 3 4 - - - - 10 Partly cloudy - 15.5 1024.4 0.0
26/04:30pm NNE 4 5 - - - - 10 Partly cloudy - 17.1 1024.2 0.0
26/04:00pm NNE 3 4 - - - - 10 Partly cloudy - 16.6 1024.4 0.0
26/03:30pm NNE 4 6 - - - - 10 Partly cloudy - 18.7 1024.2 0.0
26/03:00pm NNW 3 5 - - - - 10 Cloudy - 19.4 1024.3 0.0
26/02:30pm N 5 6 - - - - 10 Partly cloudy - 19.1 1024.2 0.0
26/02:00pm NNE 6 8 - - - - 10 Partly cloudy - 19.8 1024.1 0.0
26/01:30pm NNE 5 7 - - - - 10 - - 19.9 1024.2 0.0
26/01:00pm WNW 3 4 - - - - 10 Partly cloudy - 20.5 1024.3 0.0
26/12:30pm W 3 5 - - - - 10 Partly cloudy - 20.1 1024.6 0.0
26/12:00pm W 4 5 - - - - 10 Partly cloudy - 19.6 1024.9 0.0
26/11:30am W 4 5 - - - - 10 Mostly clear - 19.6 1025.3 0.0
26/11:00am WSW 4 5 - - - - 10 Partly cloudy - 19.6 1025.7 0.0
26/10:30am WSW 3 4 - - - - 10 Partly cloudy - 19.5 1026.0 0.0
26/10:00am WSW 3 4 - - - - 10 - - 19.4 1026.2 0.0
26/09:30am WSW 3 3 - - - - 10 - - 18.9 1026.2 0.0
26/09:00am CALM 0 0 - - - - 10 - - 18.6 1026.3 0.0
26/08:30am SSW 3 3 - - - - 10 Mostly clear - 18.6 1026.1 0.0
26/08:00am CALM 0 3 - - - - 10 - - 16.8 1025.8 0.0
26/07:30am SSW 3 4 - - - - 10 - - 13.7 1025.8 0.0
26/07:00am CALM 0 0 - - - - 10 - - 11.4 1025.8 0.0
26/06:53am CALM 0 0 - - - - 10 - - 11.6 1025.8 0.0
26/06:33am CALM 0 0 - - - - 5 - - 9.2 1025.5 0.0
26/06:30am CALM 0 0 - - - - 10 - - 9.4 1025.4 0.0
26/06:15am CALM 0 0 - - - - 10 - - 10.3 1025.3 0.0
26/06:00am CALM 0 0 - - - - 2 - - 9.1 1025.2 0.0
26/05:55am CALM 0 0 - - - - 4 - - 9.7 1025.1 0.0
26/05:30am CALM 0 0 - - - - 20 Clear Fine 9.4 1024.9 0.0
26/05:00am SW 1 3 - - - - 10 - - 10.3 1024.5 0.0
26/04:30am CALM 0 0 - - - - 10 - - 11.1 1024.2 0.0
26/04:00am SSW 3 4 - - - - 10 - - 9.6 1024.0 0.0
26/03:30am WSW 2 4 - - - - 10 - - 10.4 1023.9 0.0
26/03:16am CALM 0 0 - - - - 9 - - 10.0 1024.0 0.0
26/03:02am CALM 0 0 - - - - 1 - - 9.9 1024.0 0.0
26/03:00am CALM 0 0 - - - - 0.9 - - 10.4 1024.0 0.0
26/02:57am CALM 0 0 - - - - 0.9 - - 10.2 1024.0 0.0
26/02:53am CALM 0 0 - - - - 5 - - 10.0 1024.1 0.0
26/02:47am CALM 0 0 - - - - 10 - - 10.6 1024.0 0.0
26/02:30am CALM 0 0 - - - - 3 - - 10.2 1024.1 0.0
26/02:26am CALM 0 0 - - - - 5 - - 10.4 1024.2 0.0
26/02:00am CALM 0 0 - - - - 10 - - 10.2 1024.2 0.0
26/01:30am WNW 1 3 - - - - 10 - - 10.9 1024.2 0.0
26/01:00am SSW 2 5 - - - - 10 Partly cloudy - 11.4 1024.4 0.0
26/12:34am CALM 0 0 - - - - 10 Partly cloudy - 10.3 1024.5 0.0
26/12:30am CALM 0 0 - - - - 10 Partly cloudy - 10.4 1024.5 0.0
26/12:16am CALM 0 0 - - - - 5 - - 10.4 1024.4 0.0
26/12:00am SW 1 3 - - - - 10 - - 10.5 1024.5 0.0
 
Date/Time
EST
Wind Sea
Height
m
Swell Vis
km
Cloud Weather Temp
°C
Press
MSL
hPa
Rain since
9am
mm
Dir  Spd
kts
Gust
kts
Height
m
Period
s
Dir
25/11:30pm CALM 0 0 - - - - 10 Mostly clear - 10.8 1024.6 0.0
25/11:00pm S 2 3 - - - - 10 - - 10.7 1024.6 0.0
25/10:30pm S 2 4 - - - - 10 Partly cloudy - 11.7 1024.6 0.0
25/10:00pm CALM 0 0 - - - - 10 Partly cloudy - 11.0 1024.5 0.0
25/09:30pm CALM 0 0 - - - - 10 Partly cloudy - 11.3 1024.4 0.0
25/09:00pm CALM 0 0 - - - - 10 Partly cloudy - 11.2 1024.2 0.0
25/08:30pm CALM 0 0 - - - - 10 - - 12.1 1024.1 0.0
25/08:00pm CALM 0 0 - - - - 10 Partly cloudy - 12.2 1024.0 0.0
25/07:30pm CALM 0 0 - - - - 10 - - 12.6 1023.8 0.0
25/07:00pm CALM 0 0 - - - - 10 - - 12.8 1023.6 0.0
25/06:30pm CALM 0 0 - - - - 10 - - 13.8 1023.4 0.0
25/06:00pm S 1 5 - - - - 10 Partly cloudy - 15.2 1023.1 0.0
25/05:30pm SW 5 7 - - - - 10 Mostly clear - 17.3 1022.7 0.0
25/05:00pm SW 5 8 - - - - 10 Partly cloudy - 17.9 1022.3 0.0
25/04:30pm WSW 9 11 - - - - 10 - - 18.0 1021.9 0.0
25/04:00pm WSW 9 12 - - - - 10 - - 18.6 1021.7 0.0
25/03:30pm WSW 8 11 - - - - 10 - - 19.1 1021.5 0.0
25/03:00pm WSW 10 12 - - - - 10 - - 19.4 1021.4 0.0
25/02:30pm W 10 12 - - - - 30 Mostly clear Fine 19.8 1021.3 0.0
25/02:00pm WSW 9 11 - - - - 10 - - 20.2 1021.1 0.0
25/01:30pm WSW 9 11 - - - - 10 - - 20.2 1021.1 0.0
25/01:00pm WSW 8 10 - - - - 10 - - 19.8 1021.1 0.0
25/12:30pm WSW 9 11 - - - - 10 - - 20.0 1021.2 0.0
25/12:00pm WSW 10 12 - - - - 10 - - 20.2 1021.4 0.0
25/11:30am WSW 11 13 - - - - 10 - - 20.0 1021.6 0.0
25/11:00am WSW 11 13 - - - - 10 - - 19.8 1021.9 0.0
25/10:30am WSW 10 13 - - - - 10 Partly cloudy - 19.8 1022.2 0.0
25/10:00am WSW 11 13 - - - - 10 - - 19.9 1022.4 0.0
25/09:30am WSW 9 12 - - - - 10 - - 19.5 1022.5 0.0
25/09:00am SW 7 10 - - - - 10 - - 19.3 1022.3 0.0
25/08:30am WSW 8 12 - - - - 25 Mostly clear Fine 19.0 1022.0 6.6
25/08:00am SW 8 14 - - - - 10 Partly cloudy - 18.8 1021.8 6.6
25/07:30am SW 10 14 - - - - 10 Partly cloudy - 18.5 1021.5 6.6
25/07:00am WSW 13 17 - - - - 10 Partly cloudy - 18.6 1021.2 6.6
25/06:30am WSW 11 15 - - - - 10 Partly cloudy - 18.6 1020.7 6.6
25/06:00am WSW 15 19 - - - - 10 Partly cloudy - 18.8 1020.4 6.6
25/05:30am WSW 16 20 - - - - 18 Partly cloudy Fine 18.7 1019.9 6.6
25/05:00am WSW 15 18 - - - - 10 Partly cloudy - 18.6 1019.7 6.6
25/04:30am WSW 17 22 - - - - 10 Partly cloudy - 18.7 1019.5 6.6
25/04:00am WSW 17 21 - - - - 10 Partly cloudy - 18.6 1019.3 6.6
25/03:30am WSW 15 19 - - - - 10 Partly cloudy - 18.2 1019.4 6.6

Other formats

Comma delimited format used in spreadsheet applications
http://www.bom.gov.au/fwo/IDN60701/IDN60701.94995.axf

JavaScript Object Notation format (JSON) in row-major order
http://www.bom.gov.au/fwo/IDN60701/IDN60701.94995.json

Data quality

Most of these data are generated automatically and are frequently updated. Quality checks on data are not normally performed. It is possible for incorrect values to appear. Refer to information at About Latest Weather Observations and please check the disclaimer before using these data.